createdAt,value
2019-01-19T00:01:21.868Z,100093.19
2019-01-19T00:05:35.299Z,100088.11
2019-01-19T00:09:08.217Z,100090.39
2019-01-19T00:12:35.004Z,100092.53
2019-01-19T00:15:57.533Z,100081.25
2019-01-19T00:19:39.223Z,100095.39
2019-01-19T00:22:57.643Z,100094.33
2019-01-19T00:26:47.278Z,100090.52
2019-01-19T00:30:16.136Z,100093.91
2019-01-19T00:34:03.004Z,100097.38
2019-01-19T00:37:29.957Z,100102.38
2019-01-19T00:41:17.150Z,100102.88
2019-01-19T00:45:27.344Z,100107.73
2019-01-19T00:49:05.929Z,100099.02
2019-01-19T00:52:47.573Z,100098.70
2019-01-19T00:56:50.655Z,100106.15
2019-01-19T00:59:59.961Z,100107.83
2019-01-19T01:03:25.183Z,100106.16
2019-01-19T01:06:59.685Z,100108.78
2019-01-19T01:10:22.775Z,100104.70
2019-01-19T01:14:04.924Z,100103.31
2019-01-19T01:18:03.158Z,100104.84
2019-01-19T01:22:04.446Z,100098.32
2019-01-19T01:26:14.703Z,100101.64
2019-01-19T01:29:40.505Z,100104.80
2019-01-19T01:33:29.621Z,100100.59
2019-01-19T01:37:09.060Z,100110.78
2019-01-19T01:40:57.995Z,100104.34
2019-01-19T01:44:46.450Z,100100.18
2019-01-19T01:48:33.635Z,100101.02
2019-01-19T01:51:56.834Z,100096.91
2019-01-19T01:55:27.406Z,100094.81
2019-01-19T01:59:02.720Z,100095.06
2019-01-19T02:02:33.625Z,100090.47
2019-01-19T02:06:02.528Z,100092.70
2019-01-19T02:09:57.829Z,100095.19
2019-01-19T02:13:41.071Z,100087.88
2019-01-19T02:17:07.072Z,100093.76
2019-01-19T02:20:49.142Z,100088.26
2019-01-19T02:24:33.203Z,100087.73
2019-01-19T02:27:54.524Z,100087.16
2019-01-19T02:31:45.412Z,100084.03
2019-01-19T02:35:48.626Z,100082.64
2019-01-19T02:39:49.393Z,100081.69
2019-01-19T02:43:35.027Z,100082.44
2019-01-19T02:47:24.251Z,100074.98
2019-01-19T02:51:00.122Z,100069.94
2019-01-19T02:54:20.186Z,100067.66
2019-01-19T02:58:15.101Z,100063.55
2019-01-19T03:02:08.520Z,100066.17
2019-01-19T03:05:28.156Z,100066.86
2019-01-19T03:09:17.399Z,100063.91
2019-01-19T03:12:43.481Z,100058.61
2019-01-19T03:16:14.383Z,100060.16
2019-01-19T03:19:43.671Z,100061.23
2019-01-19T03:23:14.671Z,100056.84
2019-01-19T03:26:37.931Z,100056.19
2019-01-19T03:29:53.421Z,100052.61
2019-01-19T03:33:31.254Z,100051.87
2019-01-19T03:37:03.678Z,100056.36
2019-01-19T03:40:41.531Z,100054.55
2019-01-19T03:44:26.817Z,100053.45
2019-01-19T03:47:59.978Z,100051.98
2019-01-19T03:51:46.809Z,100046.17
2019-01-19T03:55:09.471Z,100045.03
2019-01-19T03:58:27.122Z,100050.83
2019-01-19T04:01:52.840Z,100044.94
2019-01-19T04:05:20.879Z,100042.05
2019-01-19T04:08:59.191Z,100040.87
2019-01-19T04:12:54.129Z,100040.30
2019-01-19T04:16:40.345Z,100039.89
2019-01-19T04:20:21.537Z,100035.68
2019-01-19T04:23:26.608Z,100034.00
2019-01-19T04:26:36.191Z,100035.57
2019-01-19T04:29:41.388Z,100035.48
2019-01-19T04:32:47.613Z,100030.11
2019-01-19T04:35:52.721Z,100035.89
2019-01-19T04:38:58.002Z,100034.94
2019-01-19T04:42:03.983Z,100028.95
2019-01-19T04:45:09.109Z,100027.20
2019-01-19T04:48:14.807Z,100025.92
2019-01-19T04:51:19.920Z,100026.46
2019-01-19T04:54:25.081Z,100023.13
2019-01-19T04:57:30.333Z,100024.38
2019-01-19T05:00:35.551Z,100020.85
2019-01-19T05:03:40.679Z,100019.02
2019-01-19T05:06:45.861Z,100022.02
2019-01-19T05:09:50.956Z,100015.46
2019-01-19T05:12:56.078Z,100016.41
2019-01-19T05:16:01.153Z,100017.27
2019-01-19T05:19:06.338Z,100011.83
2019-01-19T05:22:11.452Z,100012.20
2019-01-19T05:25:16.606Z,100009.30
2019-01-19T05:28:21.723Z,100013.30
2019-01-19T05:31:26.941Z,100011.77
2019-01-19T05:34:32.095Z,100008.97
2019-01-19T05:37:37.227Z,100011.59
2019-01-19T05:40:42.323Z,100002.73
2019-01-19T05:43:47.497Z,100010.02
2019-01-19T05:46:52.645Z,100004.47
2019-01-19T05:49:57.778Z,100004.17
2019-01-19T05:53:02.966Z,100011.17
2019-01-19T05:56:08.210Z,99999.52
2019-01-19T05:59:13.341Z,100003.52
2019-01-19T06:02:19.806Z,100000.68
2019-01-19T06:05:24.937Z,100000.05
2019-01-19T06:08:30.102Z,100003.30
2019-01-19T06:11:35.234Z,99999.11
2019-01-19T06:14:40.378Z,100000.23
2019-01-19T06:17:45.515Z,99998.27
2019-01-19T06:20:50.644Z,100002.59
2019-01-19T06:23:55.775Z,99999.97
2019-01-19T06:27:00.904Z,100006.75
2019-01-19T06:30:08.701Z,100013.39
2019-01-19T06:33:13.858Z,99999.84
2019-01-19T06:36:18.978Z,100002.53
2019-01-19T06:39:24.187Z,100000.83
2019-01-19T06:42:29.294Z,100005.33
2019-01-19T06:45:34.535Z,100009.33
2019-01-19T06:48:39.598Z,100007.95
2019-01-19T06:51:44.718Z,100011.20
2019-01-19T06:54:49.936Z,100013.77
2019-01-19T06:57:55.138Z,100013.83
2019-01-19T07:01:00.287Z,100017.67
2019-01-19T07:04:05.405Z,100014.84
2019-01-19T07:07:10.540Z,100021.22
2019-01-19T07:10:18.321Z,100019.92
2019-01-19T07:13:23.475Z,100023.61
2019-01-19T07:16:28.645Z,100019.50
2019-01-19T07:19:33.829Z,100018.88
2019-01-19T07:22:38.926Z,100017.23
2019-01-19T07:25:45.492Z,100023.58
2019-01-19T07:28:50.730Z,100026.66
2019-01-19T07:31:56.002Z,100023.84
2019-01-19T07:35:01.206Z,100024.70
2019-01-19T07:38:06.471Z,100021.57
2019-01-19T07:41:11.641Z,100023.28
2019-01-19T07:44:16.760Z,100021.11
2019-01-19T07:47:22.281Z,100025.00
2019-01-19T07:50:27.404Z,100019.39
2019-01-19T07:53:32.518Z,100018.40
2019-01-19T07:56:37.685Z,100025.38
2019-01-19T07:59:42.816Z,100021.38
2019-01-19T08:02:47.944Z,100018.62
2019-01-19T08:05:53.037Z,100020.77
2019-01-19T08:08:59.864Z,100016.52
2019-01-19T08:12:05.323Z,100022.44
2019-01-19T08:15:13.090Z,100024.05
2019-01-19T08:18:18.290Z,100009.70
2019-01-19T08:21:23.483Z,100011.70
2019-01-19T08:24:28.646Z,100012.16
2019-01-19T08:27:33.826Z,100010.93
2019-01-19T08:30:39.051Z,100010.41
2019-01-19T08:33:44.221Z,100011.65
2019-01-19T08:36:49.311Z,100005.09
2019-01-19T08:39:54.441Z,100000.91
2019-01-19T08:43:04.267Z,100006.28
2019-01-19T08:46:09.640Z,100001.16
2019-01-19T08:49:14.808Z,100007.40
2019-01-19T08:52:19.977Z,100008.23
2019-01-19T08:55:25.181Z,100006.91
2019-01-19T08:58:31.560Z,100003.06
2019-01-19T09:01:36.848Z,99996.13
2019-01-19T09:04:41.958Z,99996.35
2019-01-19T09:07:47.114Z,99996.09
2019-01-19T09:10:52.244Z,99999.34
2019-01-19T09:13:57.405Z,99996.98
2019-01-19T09:17:02.515Z,99997.15
2019-01-19T09:20:09.354Z,99995.75
2019-01-19T09:23:39.260Z,99999.42
2019-01-19T09:26:44.414Z,99997.70
2019-01-19T09:29:49.591Z,99993.89
2019-01-19T09:32:55.290Z,99989.78
2019-01-19T09:36:00.451Z,99985.44
2019-01-19T09:39:11.401Z,99991.06
2019-01-19T09:42:16.525Z,99986.37
2019-01-19T09:45:21.796Z,99990.23
2019-01-19T09:48:26.910Z,99981.28
2019-01-19T09:51:32.097Z,99984.54
2019-01-19T09:54:37.298Z,99978.59
2019-01-19T09:57:42.748Z,99976.75
2019-01-19T10:00:47.951Z,99979.64
2019-01-19T10:03:53.285Z,99976.35
2019-01-19T10:06:58.407Z,99972.78
2019-01-19T10:10:03.573Z,99964.32
2019-01-19T10:13:08.675Z,99967.17
2019-01-19T10:16:13.856Z,99958.31
2019-01-19T10:19:19.015Z,99959.65
2019-01-19T10:22:24.253Z,99952.12
2019-01-19T10:25:29.557Z,99949.98
2019-01-19T10:28:34.711Z,99947.37
2019-01-19T10:31:39.914Z,99940.13
2019-01-19T10:34:45.097Z,99938.94
2019-01-19T10:37:56.209Z,99939.93
2019-01-19T10:40:57.265Z,99939.98
2019-01-19T10:44:02.443Z,99928.19
2019-01-19T10:47:07.716Z,99928.31
2019-01-19T10:50:14.629Z,99922.19
2019-01-19T10:53:20.682Z,99921.06
2019-01-19T10:56:25.857Z,99913.75
2019-01-19T10:59:31.009Z,99908.78
2019-01-19T11:02:36.140Z,99903.80
2019-01-19T11:05:41.240Z,99898.66
2019-01-19T11:08:46.338Z,99889.23
2019-01-19T11:11:51.543Z,99884.87
2019-01-19T11:14:56.764Z,99882.68
2019-01-19T11:18:01.920Z,99875.55
2019-01-19T11:21:07.053Z,99875.86
2019-01-19T11:24:12.197Z,99868.16
2019-01-19T11:27:17.349Z,99868.72
2019-01-19T11:30:24.413Z,99856.23
2019-01-19T11:33:29.524Z,99864.37
2019-01-19T11:36:34.665Z,99852.11
2019-01-19T11:39:39.754Z,99849.52
2019-01-19T11:42:44.894Z,99842.11
2019-01-19T11:45:50.027Z,99838.91
2019-01-19T11:48:55.249Z,99834.92
2019-01-19T11:52:00.371Z,99823.65
2019-01-19T11:55:07.682Z,99822.20
2019-01-19T11:58:14.849Z,99818.71
2019-01-19T12:01:20.454Z,99808.25
2019-01-19T12:04:25.658Z,99804.90
2019-01-19T12:07:30.748Z,99795.37
2019-01-19T12:10:35.959Z,99792.49
2019-01-19T12:13:41.110Z,99792.25
2019-01-19T12:16:46.241Z,99790.70
2019-01-19T12:19:51.331Z,99775.18
2019-01-19T12:22:56.519Z,99776.14
2019-01-19T12:26:01.676Z,99759.64
2019-01-19T12:29:06.788Z,99768.86
2019-01-19T12:32:14.460Z,99764.84
2019-01-19T12:35:18.793Z,99761.06
2019-01-19T12:38:26.993Z,99744.12
2019-01-19T12:41:31.769Z,99740.83
2019-01-19T12:44:36.917Z,99740.17
2019-01-19T12:47:42.046Z,99729.08
2019-01-19T12:50:47.264Z,99725.18
2019-01-19T12:53:52.410Z,99727.34
2019-01-19T12:56:57.643Z,99715.76
2019-01-19T13:00:02.770Z,99714.59
2019-01-19T13:03:08.581Z,99709.13
2019-01-19T13:06:34.405Z,99701.34
2019-01-19T13:09:43.285Z,99695.38
2019-01-19T13:12:58.084Z,99689.02
2019-01-19T13:16:35.759Z,99682.03
2019-01-19T13:20:05.794Z,99675.38
2019-01-19T13:23:47.860Z,99676.39
2019-01-19T13:27:11.400Z,99672.05
2019-01-19T13:30:29.216Z,99677.05
2019-01-19T13:33:56.794Z,99670.25
2019-01-19T13:37:17.411Z,99670.38
2019-01-19T13:40:59.424Z,99666.72
2019-01-19T13:44:34.986Z,99665.03
2019-01-19T13:48:16.059Z,99664.73
2019-01-19T13:51:35.459Z,99660.23
2019-01-19T13:55:50.545Z,99655.58
2019-01-19T13:59:12.056Z,99651.77
2019-01-19T14:02:40.265Z,99647.80
2019-01-19T14:06:17.975Z,99638.81
2019-01-19T14:09:55.201Z,99635.50
2019-01-19T14:13:27.909Z,99634.17
2019-01-19T14:17:19.979Z,99628.84
2019-01-19T14:21:24.724Z,99626.85
2019-01-19T14:25:09.538Z,99617.88
2019-01-19T14:29:05.432Z,99615.55
2019-01-19T14:32:29.266Z,99613.69
2019-01-19T14:36:24.537Z,99606.89
2019-01-19T14:40:00.193Z,99601.88
2019-01-19T14:43:52.328Z,99596.67
2019-01-19T14:47:16.067Z,99594.33
2019-01-19T14:51:01.105Z,99595.33
2019-01-19T14:54:43.045Z,99593.06
2019-01-19T14:58:26.337Z,99583.44
2019-01-19T15:02:03.825Z,99586.81
2019-01-19T15:05:28.610Z,99591.11
2019-01-19T15:09:14.723Z,99582.29
2019-01-19T15:13:12.009Z,99584.84
2019-01-19T15:16:53.763Z,99574.29
2019-01-19T15:20:27.072Z,99571.86
2019-01-19T15:23:42.241Z,99569.78
2019-01-19T15:27:23.425Z,99566.73
2019-01-19T15:30:47.923Z,99570.06
2019-01-19T15:34:28.920Z,99567.66
2019-01-19T15:37:44.865Z,99573.81
2019-01-19T15:41:37.170Z,99579.60
2019-01-19T15:45:24.729Z,99576.05
2019-01-19T15:49:23.052Z,99573.44
2019-01-19T15:52:55.755Z,99571.17
2019-01-19T15:56:43.752Z,99569.69
2019-01-19T16:00:37.538Z,99566.06
2019-01-19T16:04:20.842Z,99569.82
2019-01-19T16:08:03.142Z,99569.03
2019-01-19T16:11:47.629Z,99569.13
2019-01-19T16:15:15.864Z,99574.83
2019-01-19T16:18:52.379Z,99577.02
2019-01-19T16:22:27.721Z,99583.84
2019-01-19T16:26:12.750Z,99582.81
2019-01-19T16:29:52.523Z,99579.05
2019-01-19T16:33:31.953Z,99575.09
2019-01-19T16:37:03.415Z,99573.82
2019-01-19T16:40:40.927Z,99578.45
2019-01-19T16:44:31.948Z,99574.71
2019-01-19T16:48:19.084Z,99581.33
2019-01-19T16:52:20.057Z,99580.61
2019-01-19T16:55:41.649Z,99579.23
2019-01-19T16:59:04.495Z,99580.33
2019-01-19T17:02:49.274Z,99582.75
2019-01-19T17:06:31.086Z,99583.64
2019-01-19T17:10:01.083Z,99574.09
2019-01-19T17:13:45.504Z,99574.84
2019-01-19T17:17:37.455Z,99577.56
2019-01-19T17:21:22.521Z,99571.86
2019-01-19T17:25:20.392Z,99573.18
2019-01-19T17:28:59.491Z,99570.30
2019-01-19T17:32:33.733Z,99575.58
2019-01-19T17:36:08.142Z,99573.37
2019-01-19T17:39:29.654Z,99571.95
2019-01-19T17:43:16.606Z,99579.55
2019-01-19T17:47:11.378Z,99577.30
2019-01-19T17:51:09.499Z,99580.75
2019-01-19T17:54:51.388Z,99581.52
2019-01-19T17:58:32.654Z,99577.82
2019-01-19T18:02:31.148Z,99567.69
2019-01-19T18:06:07.920Z,99573.87
2019-01-19T18:09:47.611Z,99571.73
2019-01-19T18:13:34.078Z,99571.69
2019-01-19T18:17:05.699Z,99567.72
2019-01-19T18:20:25.795Z,99572.52
2019-01-19T18:24:13.878Z,99566.52
2019-01-19T18:28:01.567Z,99570.59
2019-01-19T18:31:47.111Z,99568.09
2019-01-19T18:35:20.893Z,99570.33
2019-01-19T18:39:00.597Z,99572.95
2019-01-19T18:42:30.687Z,99567.55
2019-01-19T18:46:09.694Z,99571.55
2019-01-19T18:49:46.493Z,99565.70
2019-01-19T18:53:15.519Z,99568.09
2019-01-19T18:57:03.247Z,99571.34
2019-01-19T19:00:37.877Z,99562.32
2019-01-19T19:04:54.384Z,99554.90
2019-01-19T19:08:35.786Z,99558.05
2019-01-19T19:12:22.148Z,99560.06
2019-01-19T19:16:01.435Z,99552.83
2019-01-19T19:19:18.898Z,99560.45
2019-01-19T19:22:51.957Z,99552.13
2019-01-19T19:26:43.127Z,99562.39
2019-01-19T19:30:17.768Z,99561.69
2019-01-19T19:33:54.573Z,99567.31
2019-01-19T19:37:35.538Z,99565.05
2019-01-19T19:41:25.935Z,99569.80
2019-01-19T19:44:53.615Z,99574.00
2019-01-19T19:48:42.999Z,99573.52
2019-01-19T19:51:58.442Z,99572.08
2019-01-19T19:55:01.984Z,99576.38
2019-01-19T19:58:07.332Z,99569.69
2019-01-19T20:01:12.611Z,99570.67
2019-01-19T20:04:18.047Z,99571.02
2019-01-19T20:07:23.272Z,99573.63
2019-01-19T20:10:28.519Z,99575.09
2019-01-19T20:13:33.728Z,99569.45
2019-01-19T20:16:38.854Z,99575.55
2019-01-19T20:19:44.016Z,99576.62
2019-01-19T20:22:49.252Z,99578.31
2019-01-19T20:25:54.464Z,99575.55
2019-01-19T20:28:59.590Z,99575.20
2019-01-19T20:32:04.761Z,99575.19
2019-01-19T20:35:09.911Z,99573.74
2019-01-19T20:38:15.157Z,99566.59
2019-01-19T20:41:20.308Z,99571.98
2019-01-19T20:44:25.547Z,99573.06
2019-01-19T20:47:30.753Z,99568.53
2019-01-19T20:50:35.920Z,99565.87
2019-01-19T20:53:41.093Z,99566.59
2019-01-19T20:56:46.329Z,99568.77
2019-01-19T20:59:51.548Z,99574.84
2019-01-19T21:02:56.747Z,99566.59
2019-01-19T21:06:02.039Z,99576.02
2019-01-19T21:09:12.373Z,99574.36
2019-01-19T21:12:17.584Z,99582.83
2019-01-19T21:15:22.811Z,99579.13
2019-01-19T21:18:28.012Z,99573.14
2019-01-19T21:21:33.173Z,99577.10
2019-01-19T21:24:38.395Z,99581.77
2019-01-19T21:27:43.630Z,99578.65
2019-01-19T21:30:48.854Z,99584.58
2019-01-19T21:33:54.044Z,99589.31
2019-01-19T21:36:59.236Z,99589.33
2019-01-19T21:40:06.010Z,99590.78
2019-01-19T21:43:11.346Z,99587.43
2019-01-19T21:46:16.488Z,99585.62
2019-01-19T21:49:21.631Z,99579.78
2019-01-19T21:52:26.819Z,99578.47
2019-01-19T21:55:31.923Z,99572.48
2019-01-19T21:58:37.143Z,99581.16
2019-01-19T22:01:42.219Z,99591.69
2019-01-19T22:04:47.412Z,99595.04
2019-01-19T22:07:52.573Z,99587.70
2019-01-19T22:10:57.730Z,99593.98
2019-01-19T22:14:02.897Z,99597.01
2019-01-19T22:17:08.090Z,99591.99
2019-01-19T22:20:14.484Z,99590.53
2019-01-19T22:23:19.609Z,99592.28
2019-01-19T22:26:25.119Z,99586.59
2019-01-19T22:29:30.255Z,99594.06
2019-01-19T22:32:35.439Z,99590.43
2019-01-19T22:35:40.625Z,99592.42
2019-01-19T22:38:45.760Z,99592.03
2019-01-19T22:41:53.935Z,99587.56
2019-01-19T22:44:59.071Z,99585.19
2019-01-19T22:48:04.555Z,99587.01
2019-01-19T22:51:11.408Z,99583.02
2019-01-19T22:54:16.786Z,99582.92
2019-01-19T22:57:21.932Z,99584.81
2019-01-19T23:01:07.673Z,99586.31
2019-01-19T23:04:12.869Z,99583.95
2019-01-19T23:07:18.005Z,99579.19
2019-01-19T23:10:24.203Z,99582.74
2019-01-19T23:13:29.414Z,99579.39
2019-01-19T23:16:34.527Z,99580.51
2019-01-19T23:19:39.689Z,99584.12
2019-01-19T23:22:45.134Z,99574.65
2019-01-19T23:25:50.293Z,99572.84
2019-01-19T23:28:55.415Z,99573.06
2019-01-19T23:32:00.535Z,99570.34
2019-01-19T23:35:06.729Z,99573.09
2019-01-19T23:38:11.892Z,99568.78
2019-01-19T23:41:17.098Z,99570.22
2019-01-19T23:44:22.218Z,99567.12
2019-01-19T23:47:27.364Z,99566.45
2019-01-19T23:50:32.507Z,99566.80
2019-01-19T23:53:37.731Z,99565.84
2019-01-19T23:56:42.847Z,99566.64
2019-01-19T23:59:47.965Z,99567.82
